Аэропорт
Тюбу Сэнторэа (RJGG)

 RJGG / NGO

Japan
JP-23
Токонамэ
 34.85840, 136.80499  / 15 ft

 RJGG 182230Z 33017KT 9999 FEW020 SCT090 BKN/// 24/18 Q1013 NOSIG
 TAF RJGG 181706Z 1818/2000 31014KT 9999 FEW030 SCT040

2020 © VATRUS division (Privacy Policy)